createdAt,value
2019-04-18T00:00:41.201Z,0.00
2019-04-18T00:02:13.078Z,0.00
2019-04-18T00:03:51.788Z,0.00
2019-04-18T00:05:16.645Z,0.00
2019-04-18T00:06:48.459Z,0.00
2019-04-18T00:08:20.273Z,0.00
2019-04-18T00:09:56.061Z,0.00
2019-04-18T00:11:23.903Z,0.00
2019-04-18T00:12:57.371Z,0.00
2019-04-18T00:14:41.690Z,0.00
2019-04-18T00:15:59.600Z,0.00
2019-04-18T00:17:31.867Z,0.00
2019-04-18T00:19:02.986Z,0.00
2019-04-18T00:20:34.789Z,0.00
2019-04-18T00:22:06.604Z,0.00
2019-04-18T00:23:38.420Z,0.00
2019-04-18T00:25:10.232Z,0.00
2019-04-18T00:26:44.101Z,0.00
2019-04-18T00:28:13.861Z,0.00
2019-04-18T00:29:45.675Z,0.00
2019-04-18T00:31:17.493Z,0.00
2019-04-18T00:32:49.304Z,0.00
2019-04-18T00:34:21.219Z,0.00
2019-04-18T00:35:52.936Z,0.00
2019-04-18T00:37:24.988Z,0.00
2019-04-18T00:38:56.669Z,0.00
2019-04-18T00:40:28.374Z,0.00
2019-04-18T00:42:00.369Z,0.00
2019-04-18T00:43:32.003Z,0.00
2019-04-18T00:45:05.263Z,0.00
2019-04-18T00:46:35.731Z,0.00
2019-04-18T00:48:07.445Z,0.00
2019-04-18T00:49:39.259Z,0.00
2019-04-18T00:51:11.075Z,0.00
2019-04-18T00:52:46.078Z,0.00
2019-04-18T00:54:14.702Z,0.00
2019-04-18T00:55:46.516Z,0.00
2019-04-18T00:57:18.350Z,0.00
2019-04-18T00:58:51.380Z,0.00
2019-04-18T01:00:21.959Z,0.00
2019-04-18T01:01:53.774Z,0.00
2019-04-18T01:03:25.826Z,0.00
2019-04-18T01:04:57.400Z,0.00
2019-04-18T01:06:29.215Z,0.00
2019-04-18T01:08:01.044Z,0.00
2019-04-18T01:09:32.843Z,0.00
2019-04-18T01:11:04.757Z,0.00
2019-04-18T01:12:36.472Z,0.00
2019-04-18T01:14:08.286Z,0.00
2019-04-18T01:15:40.099Z,0.00
2019-04-18T01:17:12.876Z,0.00
2019-04-18T01:18:43.949Z,0.00
2019-04-18T01:20:15.541Z,0.00
2019-04-18T01:21:47.357Z,0.00
2019-04-18T01:23:22.012Z,0.00
2019-04-18T01:24:50.986Z,0.00
2019-04-18T01:26:22.798Z,0.00
2019-04-18T01:27:54.611Z,0.00
2019-04-18T01:29:26.525Z,0.00
2019-04-18T01:30:58.681Z,0.00
2019-04-18T01:32:30.065Z,0.00
2019-04-18T01:34:01.868Z,0.00
2019-04-18T01:35:33.680Z,0.00
2019-04-18T01:37:05.495Z,0.00
2019-04-18T01:38:38.986Z,0.00
2019-04-18T01:40:09.123Z,0.00
2019-04-18T01:41:41.039Z,0.00
2019-04-18T01:43:12.750Z,0.00
2019-04-18T01:44:46.713Z,0.00
2019-04-18T01:46:16.377Z,0.00
2019-04-18T01:47:48.392Z,0.00
2019-04-18T01:49:20.005Z,0.00
2019-04-18T01:50:51.826Z,0.00
2019-04-18T01:52:26.664Z,0.00
2019-04-18T01:53:55.446Z,0.00
2019-04-18T01:55:27.260Z,0.00
2019-04-18T01:56:59.782Z,0.00
2019-04-18T01:58:34.033Z,0.00
2019-04-18T02:00:02.704Z,0.00
2019-04-18T02:01:34.515Z,0.00
2019-04-18T02:03:06.329Z,0.00
2019-04-18T02:04:41.098Z,0.00
2019-04-18T02:06:10.770Z,0.00
2019-04-18T02:07:45.499Z,0.00
2019-04-18T02:09:13.583Z,0.00
2019-04-18T02:10:45.397Z,0.00
2019-04-18T02:12:17.314Z,0.00
2019-04-18T02:13:52.419Z,0.00
2019-04-18T02:15:20.838Z,0.00
2019-04-18T02:16:52.652Z,0.00
2019-04-18T02:18:24.465Z,0.00
2019-04-18T02:19:57.026Z,0.00
2019-04-18T02:21:28.093Z,0.00
2019-04-18T02:23:00.821Z,0.00
2019-04-18T02:24:31.819Z,0.00
2019-04-18T02:26:03.565Z,0.00
2019-04-18T02:27:35.349Z,0.00
2019-04-18T02:29:09.673Z,0.00
2019-04-18T02:30:38.974Z,0.00
2019-04-18T02:32:10.787Z,0.00
2019-04-18T02:33:45.767Z,0.00
2019-04-18T02:35:21.597Z,0.00
2019-04-18T02:36:46.227Z,0.00
2019-04-18T02:38:19.910Z,0.00
2019-04-18T02:39:49.854Z,0.00
2019-04-18T02:41:21.668Z,0.00
2019-04-18T02:42:53.682Z,0.00
2019-04-18T02:44:27.509Z,0.00
2019-04-18T02:45:57.109Z,0.00
2019-04-18T02:47:28.922Z,0.00
2019-04-18T02:49:00.762Z,0.00
2019-04-18T02:50:32.548Z,0.00
2019-04-18T02:52:04.361Z,0.00
2019-04-18T02:53:36.181Z,0.00
2019-04-18T02:55:07.992Z,0.00
2019-04-18T02:56:39.803Z,0.00
2019-04-18T02:58:11.616Z,0.00
2019-04-18T02:59:48.963Z,0.00
2019-04-18T03:01:15.382Z,0.00
2019-04-18T03:02:47.056Z,0.00
2019-04-18T03:04:19.974Z,0.00
2019-04-18T03:05:50.683Z,0.00
2019-04-18T03:07:23.400Z,0.00
2019-04-18T03:08:56.920Z,0.00
2019-04-18T03:10:26.123Z,0.00
2019-04-18T03:19:37.206Z,0.00
2019-04-18T03:21:09.156Z,0.00
2019-04-18T03:22:40.631Z,0.00
2019-04-18T03:24:16.750Z,0.00
2019-04-18T03:25:44.258Z,0.00
2019-04-18T03:27:16.073Z,0.00
2019-04-18T03:28:47.884Z,0.00
2019-04-18T03:30:28.930Z,0.00
2019-04-18T03:31:58.024Z,0.00
2019-04-18T03:33:23.895Z,0.00
2019-04-18T03:34:55.138Z,0.00
2019-04-18T03:36:28.870Z,0.00
2019-04-18T03:37:58.864Z,0.00
2019-04-18T03:39:30.578Z,0.00
2019-04-18T03:41:02.476Z,0.00
2019-04-18T03:42:34.203Z,0.00
2019-04-18T03:44:06.156Z,0.00
2019-04-18T03:45:37.831Z,0.00
2019-04-18T03:47:09.650Z,0.00
2019-04-18T03:48:41.458Z,0.00
2019-04-18T03:50:18.174Z,0.00
2019-04-18T03:51:45.085Z,0.00
2019-04-18T03:53:16.898Z,0.00
2019-04-18T03:54:48.718Z,0.00
2019-04-18T03:56:20.626Z,0.00
2019-04-18T03:57:52.338Z,0.00
2019-04-18T03:59:24.154Z,0.00
2019-04-18T04:00:58.073Z,0.00
2019-04-18T04:02:27.780Z,0.00
2019-04-18T04:03:59.591Z,0.00
2019-04-18T04:05:31.404Z,0.00
2019-04-18T04:07:04.152Z,0.00
2019-04-18T04:08:35.034Z,0.00
2019-04-18T04:19:21.318Z,0.00
2019-04-18T04:20:49.540Z,0.00
2019-04-18T04:22:21.349Z,0.00
2019-04-18T04:23:53.164Z,0.00
2019-04-18T04:25:24.975Z,0.00
2019-04-18T04:26:56.788Z,0.00
2019-04-18T04:28:29.050Z,0.00
2019-04-18T04:30:00.414Z,0.00
2019-04-18T04:31:32.235Z,0.00
2019-04-18T04:33:04.175Z,0.00
2019-04-18T04:34:35.855Z,0.00
2019-04-18T04:36:20.784Z,0.00
2019-04-18T04:37:44.630Z,0.00
2019-04-18T04:39:11.300Z,0.00
2019-04-18T04:40:43.108Z,0.00
2019-04-18T04:42:15.755Z,0.00
2019-04-18T04:43:46.837Z,0.00
2019-04-18T04:45:18.547Z,0.00
2019-04-18T04:46:50.359Z,0.00
2019-04-18T04:48:24.986Z,0.00
2019-04-18T04:49:53.985Z,0.00
2019-04-18T04:51:25.798Z,0.00
2019-04-18T04:52:59.665Z,0.00
2019-04-18T04:54:29.430Z,0.00
2019-04-18T04:56:01.338Z,0.00
2019-04-18T04:57:33.051Z,0.00
2019-04-18T04:59:05.425Z,0.00
2019-04-18T05:00:36.678Z,0.00
2019-04-18T05:02:09.085Z,0.00
2019-04-18T05:03:40.304Z,0.00
2019-04-18T05:05:12.115Z,0.00
2019-04-18T05:06:44.563Z,0.00
2019-04-18T05:08:15.938Z,0.00
2019-04-18T05:09:47.555Z,0.00
2019-04-18T05:11:21.598Z,0.00
2019-04-18T05:12:51.180Z,0.00
2019-04-18T05:14:23.193Z,0.00
2019-04-18T05:15:54.806Z,0.00
2019-04-18T05:17:26.618Z,0.00
2019-04-18T05:18:58.431Z,0.00
2019-04-18T05:20:30.244Z,0.00
2019-04-18T05:22:02.059Z,0.00
2019-04-18T05:23:33.871Z,0.00
2019-04-18T05:25:08.070Z,0.00
2019-04-18T05:26:37.498Z,0.00
2019-04-18T05:28:09.307Z,0.00
2019-04-18T05:29:41.125Z,0.00
2019-04-18T05:31:17.612Z,0.00
2019-04-18T05:32:44.847Z,0.00
2019-04-18T05:34:17.961Z,0.00
2019-04-18T05:35:48.371Z,0.00
2019-04-18T05:37:20.184Z,0.00
2019-04-18T05:38:54.054Z,0.00
2019-04-18T05:40:23.810Z,0.00
2019-04-18T05:41:56.986Z,0.00
2019-04-18T05:43:27.438Z,0.00
2019-04-18T05:44:59.393Z,0.00
2019-04-18T05:46:31.063Z,0.00
2019-04-18T05:48:02.874Z,0.00
2019-04-18T05:49:36.071Z,0.00
2019-04-18T05:51:06.700Z,0.00
2019-04-18T05:52:38.313Z,0.00
2019-04-18T05:54:10.125Z,0.00
2019-04-18T05:55:41.938Z,0.00
2019-04-18T05:57:13.751Z,0.00
2019-04-18T05:58:45.564Z,0.00
2019-04-18T06:00:17.378Z,0.00
2019-04-18T06:01:49.190Z,0.00
2019-04-18T06:03:22.984Z,0.00
2019-04-18T06:04:52.815Z,0.00
2019-04-18T06:06:24.628Z,0.00
2019-04-18T06:07:59.371Z,0.00
2019-04-18T06:09:28.353Z,0.00
2019-04-18T06:11:00.066Z,0.00
2019-04-18T06:12:32.761Z,0.00
2019-04-18T06:14:03.692Z,0.00
2019-04-18T06:15:35.604Z,0.00
2019-04-18T06:17:07.413Z,0.00
2019-04-18T06:18:42.484Z,0.00
2019-04-18T06:20:10.943Z,0.00
2019-04-18T06:21:42.755Z,0.00
2019-04-18T06:23:15.029Z,0.00
2019-04-18T06:24:46.383Z,0.00
2019-04-18T06:26:18.193Z,0.00
2019-04-18T06:27:50.106Z,0.00
2019-04-18T06:29:21.819Z,0.00
2019-04-18T06:30:53.631Z,0.00
2019-04-18T06:32:25.444Z,0.00
2019-04-18T06:33:57.257Z,0.00
2019-04-18T06:35:29.069Z,0.00
2019-04-18T06:37:00.882Z,0.00
2019-04-18T06:38:33.001Z,0.00
2019-04-18T06:40:04.507Z,0.00
2019-04-18T06:41:38.954Z,0.00
2019-04-18T06:43:08.133Z,0.00
2019-04-18T06:44:39.950Z,0.00
2019-04-18T06:46:17.727Z,0.00
2019-04-18T06:47:43.572Z,0.00
2019-04-18T06:49:15.387Z,0.00
2019-04-18T06:50:47.196Z,0.00
2019-04-18T06:52:19.009Z,0.00
2019-04-18T06:53:52.250Z,0.00
2019-04-18T06:55:22.637Z,0.00
2019-04-18T06:56:54.449Z,0.00
2019-04-18T06:58:35.515Z,0.00
2019-04-18T06:59:58.071Z,0.00
2019-04-18T07:01:31.760Z,0.00
2019-04-18T07:03:01.696Z,0.00
2019-04-18T07:04:33.613Z,0.00
2019-04-18T07:06:08.940Z,0.00
2019-04-18T07:07:38.539Z,0.00
2019-04-18T07:09:08.945Z,0.00
2019-04-18T07:10:55.256Z,0.00
2019-04-18T07:12:14.071Z,0.00
2019-04-18T07:13:44.383Z,0.00
2019-04-18T07:15:16.195Z,0.00
2019-04-18T07:16:48.109Z,0.00
2019-04-18T07:18:19.820Z,0.00
2019-04-18T07:19:51.633Z,0.00
2019-04-18T07:21:26.438Z,0.00
2019-04-18T07:22:55.458Z,0.00
2019-04-18T07:24:27.071Z,0.00
2019-04-18T07:25:58.883Z,0.00
2019-04-18T07:27:30.706Z,0.00
2019-04-18T07:29:02.508Z,0.00
2019-04-18T07:30:38.393Z,0.00
2019-04-18T07:32:06.134Z,0.00
2019-04-18T07:33:37.948Z,0.00
2019-04-18T07:35:09.766Z,0.00
2019-04-18T07:36:41.573Z,0.00
2019-04-18T07:38:13.383Z,0.00
2019-04-18T07:39:45.195Z,0.00
2019-04-18T07:41:19.084Z,0.00
2019-04-18T07:42:48.821Z,0.00
2019-04-18T07:44:21.003Z,0.00
2019-04-18T07:45:52.445Z,0.00
2019-04-18T07:47:24.358Z,0.00
2019-04-18T07:48:56.070Z,0.00
2019-04-18T07:50:27.882Z,0.00
2019-04-18T07:51:59.700Z,0.00
2019-04-18T07:53:31.607Z,0.00
2019-04-18T07:55:03.320Z,0.00
2019-04-18T07:56:38.192Z,0.00
2019-04-18T07:58:06.946Z,0.00
2019-04-18T07:59:38.857Z,0.00
2019-04-18T08:01:10.571Z,0.00
2019-04-18T08:02:42.382Z,0.00
2019-04-18T08:04:16.177Z,0.00
2019-04-18T08:05:46.007Z,0.00
2019-04-18T08:07:17.825Z,0.00
2019-04-18T08:08:49.632Z,0.00
2019-04-18T08:10:25.673Z,0.00
2019-04-18T08:11:53.258Z,0.00
2019-04-18T08:13:25.074Z,0.00
2019-04-18T08:14:56.881Z,0.00
2019-04-18T08:16:28.694Z,0.00
2019-04-18T08:18:00.720Z,0.00
2019-04-18T08:19:32.323Z,0.00
2019-04-18T08:21:04.133Z,0.00
2019-04-18T08:22:35.944Z,0.00
2019-04-18T08:24:09.530Z,0.00
2019-04-18T08:25:39.567Z,0.00
2019-04-18T08:27:11.382Z,0.00
2019-04-18T08:28:43.194Z,0.00
2019-04-18T08:30:15.287Z,0.00
2019-04-18T08:31:46.817Z,0.00
2019-04-18T08:33:18.631Z,0.00
2019-04-18T08:34:50.443Z,0.00
2019-04-18T08:36:22.355Z,0.00
2019-04-18T08:37:57.688Z,0.00
2019-04-18T08:39:25.879Z,0.00
2019-04-18T08:40:57.693Z,0.00
2019-04-18T08:42:30.743Z,0.00
2019-04-18T08:44:01.315Z,0.00
2019-04-18T08:45:33.127Z,0.00
2019-04-18T08:47:08.282Z,0.00
2019-04-18T08:48:36.852Z,0.00
2019-04-18T08:50:08.908Z,0.00
2019-04-18T08:51:40.377Z,0.00
2019-04-18T08:53:12.203Z,0.00
2019-04-18T08:54:44.204Z,0.00
2019-04-18T08:56:15.814Z,0.00
2019-04-18T08:57:47.626Z,4.00
2019-04-18T08:59:19.438Z,0.00
2019-04-18T09:00:51.352Z,4.00
2019-04-18T09:02:23.063Z,8.00
2019-04-18T09:03:54.877Z,12.00
2019-04-18T09:05:30.809Z,16.00
2019-04-18T09:06:59.132Z,28.00
2019-04-18T09:08:31.364Z,44.00
2019-04-18T09:10:06.719Z,64.00
2019-04-18T09:11:35.042Z,92.00
2019-04-18T09:13:07.779Z,124.00
2019-04-18T09:14:37.993Z,168.00
2019-04-18T09:16:10.363Z,228.00
2019-04-18T09:17:41.560Z,296.00
2019-04-18T09:19:15.925Z,376.00
2019-04-18T09:20:45.584Z,464.00
2019-04-18T09:22:17.855Z,556.00
2019-04-18T09:23:48.725Z,656.00
2019-04-18T09:25:20.936Z,792.00
2019-04-18T09:26:53.098Z,928.00
2019-04-18T09:28:23.878Z,1044.00
2019-04-18T09:29:55.689Z,1164.00
2019-04-18T09:31:27.598Z,1320.00
2019-04-18T09:32:59.332Z,1496.00
2019-04-18T09:36:02.940Z,1852.00
2019-04-18T09:37:34.755Z,2288.00
2019-04-18T09:39:10.739Z,2508.00
2019-04-18T09:40:38.372Z,2728.00
2019-04-18T09:42:10.715Z,2904.00
2019-04-18T09:43:42.011Z,3080.00
2019-04-18T09:45:27.850Z,3224.00
2019-04-18T09:46:45.623Z,3356.00
2019-04-18T09:48:17.540Z,3488.00
2019-04-18T09:49:49.457Z,3632.00
2019-04-18T09:51:25.736Z,3824.00
2019-04-18T09:52:52.883Z,4164.00
2019-04-18T09:54:25.006Z,4660.00
2019-04-18T09:55:56.505Z,4788.00
2019-04-18T09:57:28.320Z,4788.00
2019-04-18T09:59:00.134Z,4852.00
2019-04-18T10:00:31.971Z,4992.00
2019-04-18T10:02:03.764Z,5016.00
2019-04-18T10:03:36.586Z,4916.00
2019-04-18T10:05:21.912Z,5008.00
2019-04-18T10:06:39.211Z,5156.00
2019-04-18T10:08:11.163Z,5408.00
2019-04-18T10:09:43.117Z,5556.00
2019-04-18T10:11:17.873Z,5644.00
2019-04-18T10:12:46.475Z,5772.00
2019-04-18T10:14:18.294Z,5916.00
2019-04-18T10:15:58.319Z,5928.00
2019-04-18T10:17:21.926Z,6168.00
2019-04-18T10:18:53.743Z,6368.00
2019-04-18T10:20:28.852Z,6496.00
2019-04-18T10:21:57.383Z,6616.00
2019-04-18T10:23:29.199Z,6680.00
2019-04-18T10:25:01.011Z,6784.00
2019-04-18T10:26:33.144Z,6920.00
2019-04-18T10:28:05.790Z,7032.00
2019-04-18T10:29:36.466Z,7156.00
2019-04-18T10:31:08.682Z,7196.00
2019-04-18T10:32:40.115Z,7284.00
2019-04-18T10:34:15.973Z,7392.00
2019-04-18T10:35:43.741Z,7460.00
2019-04-18T10:37:15.617Z,7568.00
2019-04-18T10:38:51.579Z,7648.00
2019-04-18T10:40:19.204Z,7692.00
2019-04-18T10:41:51.048Z,7800.00
2019-04-18T10:44:55.447Z,7984.00
2019-04-18T10:46:26.782Z,8036.00
2019-04-18T10:47:58.387Z,8108.00
2019-04-18T10:49:30.119Z,8196.00
2019-04-18T10:51:02.042Z,8308.00
2019-04-18T10:52:33.762Z,8336.00
2019-04-18T10:54:05.583Z,8284.00
2019-04-18T10:55:37.420Z,8540.00
2019-04-18T10:57:09.229Z,8592.00
2019-04-18T10:58:41.082Z,8676.00
2019-04-18T11:03:16.682Z,8972.00
2019-04-18T11:04:48.333Z,9072.00
2019-04-18T11:06:23.020Z,9292.00
2019-04-18T11:07:51.985Z,9288.00
2019-04-18T11:09:23.805Z,9384.00
2019-04-18T11:10:55.672Z,9452.00
2019-04-18T11:12:27.846Z,9492.00
2019-04-18T11:13:59.781Z,9556.00
2019-04-18T11:15:31.359Z,9836.00
2019-04-18T11:17:04.107Z,9732.00
2019-04-18T11:18:34.771Z,9724.00
2019-04-18T11:20:06.814Z,9824.00
2019-04-18T11:21:38.810Z,9892.00
2019-04-18T11:23:10.199Z,7716.00
2019-04-18T11:24:42.022Z,10084.00
2019-04-18T11:26:13.834Z,10128.00
2019-04-18T11:27:49.218Z,10244.00
2019-04-18T11:29:17.804Z,10292.00
2019-04-18T11:30:58.957Z,10320.00
2019-04-18T11:32:22.948Z,10460.00
2019-04-18T11:33:52.945Z,10496.00
2019-04-18T11:35:24.807Z,10616.00
2019-04-18T11:38:28.460Z,10736.00
2019-04-18T11:40:00.335Z,10832.00
2019-04-18T11:41:32.104Z,10892.00
2019-04-18T11:43:06.414Z,11128.00
2019-04-18T11:44:35.719Z,11472.00
2019-04-18T11:46:07.567Z,11704.00
2019-04-18T11:47:39.356Z,11560.00
2019-04-18T11:49:11.172Z,11556.00
2019-04-18T11:50:43.008Z,11640.00
2019-04-18T11:52:15.589Z,11820.00
2019-04-18T11:53:46.717Z,12000.00
2019-04-18T11:55:18.515Z,12060.00
2019-04-18T11:56:50.413Z,12432.00
2019-04-18T11:58:22.211Z,12688.00
2019-04-18T11:59:53.940Z,12876.00
2019-04-18T12:01:31.176Z,13236.00
2019-04-18T12:02:58.127Z,13484.00
2019-04-18T12:04:29.530Z,13884.00
2019-04-18T12:06:01.279Z,14156.00
2019-04-18T12:07:34.706Z,14552.00
2019-04-18T12:09:04.877Z,14776.00
2019-04-18T12:10:36.701Z,15488.00
2019-04-18T12:12:08.518Z,15884.00
2019-04-18T12:13:40.384Z,16008.00
2019-04-18T12:15:12.191Z,16392.00
2019-04-18T12:16:44.213Z,17088.00
2019-04-18T12:18:15.836Z,17824.00
2019-04-18T12:19:47.939Z,18208.00
2019-04-18T12:21:19.574Z,18368.00
2019-04-18T12:22:51.384Z,18912.00
2019-04-18T12:24:23.106Z,20416.00
2019-04-18T12:25:54.979Z,20160.00
2019-04-18T12:27:26.755Z,21056.00
2019-04-18T12:28:58.613Z,21408.00
2019-04-18T12:30:30.402Z,21248.00
2019-04-18T12:32:02.496Z,22304.00
2019-04-18T12:33:35.310Z,23456.00
2019-04-18T12:35:06.371Z,23680.00
2019-04-18T12:36:37.701Z,24704.00
2019-04-18T12:38:09.826Z,25568.00
2019-04-18T12:39:41.610Z,25344.00
2019-04-18T12:41:14.164Z,24800.00
2019-04-18T12:42:45.139Z,26432.00
2019-04-18T12:44:16.821Z,26624.00
2019-04-18T12:45:48.672Z,30336.00
2019-04-18T12:47:20.470Z,9068.00
2019-04-18T12:48:52.294Z,30816.00
2019-04-18T12:50:28.106Z,32768.00
2019-04-18T12:52:08.642Z,32864.00
2019-04-18T12:53:28.022Z,33280.00
2019-04-18T12:55:00.003Z,32608.00
2019-04-18T12:56:32.228Z,32672.00
2019-04-18T12:58:03.478Z,34784.00
2019-04-18T12:59:35.064Z,35648.00
2019-04-18T13:01:07.467Z,34272.00
2019-04-18T13:02:38.726Z,35200.00
2019-04-18T13:04:10.603Z,36288.00
2019-04-18T13:05:42.363Z,37504.00
2019-04-18T13:07:14.867Z,38240.00
2019-04-18T13:08:46.040Z,40960.00
2019-04-18T13:10:17.856Z,40512.00
2019-04-18T13:11:49.769Z,42048.00
2019-04-18T13:13:21.492Z,41888.00
2019-04-18T13:14:54.187Z,43808.00
2019-04-18T13:16:25.140Z,42368.00
2019-04-18T13:17:56.964Z,44832.00
2019-04-18T13:19:28.881Z,44672.00
2019-04-18T13:21:01.054Z,44256.00
2019-04-18T13:22:32.445Z,49728.00
2019-04-18T13:24:04.576Z,50368.00
2019-04-18T13:25:36.176Z,51296.00
2019-04-18T13:27:07.970Z,52960.00
2019-04-18T13:28:39.772Z,54304.00
2019-04-18T13:30:12.102Z,52640.00
2019-04-18T13:31:43.397Z,50368.00
2019-04-18T13:33:16.153Z,53504.00
2019-04-18T13:34:47.415Z,54464.00
2019-04-18T13:36:22.765Z,56672.00
2019-04-18T13:37:52.497Z,56960.00
2019-04-18T13:39:22.825Z,54464.00
2019-04-18T13:40:54.668Z,57312.00
2019-04-18T13:42:26.456Z,58560.00
2019-04-18T13:43:58.800Z,57248.00
2019-04-18T13:45:29.883Z,56928.00
2019-04-18T13:47:01.881Z,55968.00
2019-04-18T13:48:33.922Z,59488.00
2019-04-18T13:50:05.346Z,62080.00
2019-04-18T13:51:37.134Z,21856.00
2019-04-18T13:53:09.376Z,61760.00
2019-04-18T13:54:40.796Z,65568.00
2019-04-18T13:56:12.619Z,65984.00
2019-04-18T13:57:44.460Z,66496.00
2019-04-18T13:59:16.271Z,66304.00
2019-04-18T14:00:48.094Z,67072.00
2019-04-18T14:02:22.351Z,67776.00
2019-04-18T14:03:51.899Z,67872.00
2019-04-18T14:05:23.584Z,67936.00
2019-04-18T14:06:56.501Z,67200.00
2019-04-18T14:08:27.248Z,68320.00
2019-04-18T14:09:59.148Z,67936.00
2019-04-18T14:11:30.896Z,71264.00
2019-04-18T14:13:02.725Z,73824.00
2019-04-18T14:14:34.558Z,72000.00
2019-04-18T14:16:06.424Z,72128.00
2019-04-18T14:17:38.310Z,71104.00
2019-04-18T14:19:10.475Z,73088.00
2019-04-18T14:20:41.834Z,72032.00
2019-04-18T14:22:13.962Z,72896.00
2019-04-18T14:23:45.645Z,73184.00
2019-04-18T14:25:17.412Z,77792.00
2019-04-18T14:26:49.757Z,77568.00
2019-04-18T14:28:21.744Z,75808.00
2019-04-18T14:29:52.830Z,75776.00
2019-04-18T14:31:24.619Z,75712.00
2019-04-18T14:32:56.790Z,76576.00
2019-04-18T14:34:28.290Z,78496.00
2019-04-18T14:36:00.855Z,77024.00
2019-04-18T14:37:31.937Z,77472.00
2019-04-18T14:39:03.861Z,76608.00
2019-04-18T14:40:35.600Z,77696.00
2019-04-18T14:42:07.856Z,78688.00
2019-04-18T14:43:39.367Z,81760.00
2019-04-18T14:45:11.460Z,74528.00
2019-04-18T14:46:43.178Z,71008.00
2019-04-18T14:48:17.383Z,80800.00
2019-04-18T14:49:46.562Z,81344.00
2019-04-18T14:51:18.421Z,80000.00
2019-04-18T14:52:50.209Z,81664.00
2019-04-18T14:54:22.018Z,84064.00
2019-04-18T14:55:54.685Z,84480.00
2019-04-18T14:57:25.671Z,80544.00
2019-04-18T14:58:57.521Z,83424.00
2019-04-18T15:00:42.476Z,86496.00
2019-04-18T15:02:01.255Z,87296.00
2019-04-18T15:03:33.470Z,88416.00
2019-04-18T15:05:04.809Z,87872.00
2019-04-18T15:06:36.630Z,89760.00
2019-04-18T15:08:10.560Z,92544.00
2019-04-18T15:09:40.321Z,94048.00
2019-04-18T15:11:12.108Z,91904.00
2019-04-18T15:12:44.047Z,92000.00
2019-04-18T15:14:15.788Z,92704.00
2019-04-18T15:15:47.597Z,91072.00
2019-04-18T15:17:19.478Z,87040.00
2019-04-18T15:18:51.259Z,92672.00
2019-04-18T15:20:23.164Z,95136.00
2019-04-18T15:21:54.893Z,94272.00
2019-04-18T15:23:26.715Z,96416.00
2019-04-18T15:24:58.544Z,91616.00
2019-04-18T15:26:30.405Z,92288.00
2019-04-18T15:28:02.216Z,92608.00
2019-04-18T15:29:34.020Z,90304.00
2019-04-18T15:31:10.920Z,95264.00
2019-04-18T15:32:38.021Z,96448.00
2019-04-18T15:34:09.576Z,92096.00
2019-04-18T15:35:42.826Z,92512.00
2019-04-18T15:37:13.167Z,93888.00
2019-04-18T15:38:45.089Z,98656.00
2019-04-18T15:40:16.851Z,100448.00
2019-04-18T15:41:49.249Z,97664.00
2019-04-18T15:43:20.468Z,99200.00
2019-04-18T15:44:52.293Z,100096.00
2019-04-18T15:46:24.101Z,101408.00
2019-04-18T15:47:55.928Z,101536.00
2019-04-18T15:49:27.880Z,105056.00
2019-04-18T15:50:59.580Z,105728.00
2019-04-18T15:52:31.589Z,108512.00
2019-04-18T15:54:05.973Z,110048.00
2019-04-18T15:55:35.267Z,106400.00
2019-04-18T15:57:07.107Z,108768.00
2019-04-18T15:58:38.983Z,106208.00
2019-04-18T16:00:10.662Z,109216.00
2019-04-18T16:01:42.388Z,107200.00
2019-04-18T16:03:20.393Z,106592.00
2019-04-18T16:04:47.226Z,109088.00
2019-04-18T16:06:18.154Z,108512.00
2019-04-18T16:07:49.666Z,108928.00
2019-04-18T16:09:21.488Z,109760.00
2019-04-18T16:10:53.959Z,109952.00
2019-04-18T16:12:25.175Z,106560.00
2019-04-18T16:13:57.147Z,108160.00
2019-04-18T16:15:28.893Z,109312.00
2019-04-18T16:17:00.622Z,106944.00
2019-04-18T16:18:32.501Z,108896.00
2019-04-18T16:20:04.390Z,106656.00
2019-04-18T16:21:36.104Z,107456.00
2019-04-18T16:23:07.922Z,110336.00
2019-04-18T16:24:39.764Z,108000.00
2019-04-18T16:26:11.877Z,107904.00
2019-04-18T16:27:43.501Z,111200.00
2019-04-18T16:29:15.225Z,107936.00
2019-04-18T16:30:47.081Z,105920.00
2019-04-18T16:32:18.943Z,106848.00
2019-04-18T16:33:50.803Z,109120.00
2019-04-18T16:35:22.532Z,110048.00
2019-04-18T16:36:54.403Z,111840.00
2019-04-18T16:38:26.186Z,112288.00
2019-04-18T16:39:58.000Z,106624.00
2019-04-18T16:41:29.825Z,108928.00
2019-04-18T16:43:01.657Z,111904.00
2019-04-18T16:44:33.478Z,112768.00
2019-04-18T16:46:05.429Z,109504.00
2019-04-18T16:47:37.211Z,107776.00
2019-04-18T16:49:08.952Z,107872.00
2019-04-18T16:50:40.777Z,108608.00
2019-04-18T16:52:12.703Z,109024.00
2019-04-18T16:53:44.493Z,108160.00
2019-04-18T16:55:16.262Z,107584.00
2019-04-18T16:56:48.081Z,107072.00
2019-04-18T16:58:19.903Z,107072.00
2019-04-18T16:59:51.768Z,111008.00
2019-04-18T17:01:23.583Z,109984.00
2019-04-18T17:02:57.655Z,111168.00
2019-04-18T17:04:27.206Z,108032.00
2019-04-18T17:05:59.085Z,106272.00
2019-04-18T17:07:30.883Z,104864.00
2019-04-18T17:09:02.681Z,102816.00
2019-04-18T17:10:34.659Z,102976.00
2019-04-18T17:12:06.395Z,107328.00
2019-04-18T17:13:38.157Z,105696.00
2019-04-18T17:15:09.982Z,102688.00
2019-04-18T17:16:41.810Z,96448.00
2019-04-18T17:18:13.632Z,103424.00
2019-04-18T17:19:45.849Z,105856.00
2019-04-18T17:21:17.303Z,106624.00
2019-04-18T17:22:49.108Z,107104.00
2019-04-18T17:24:20.934Z,105440.00
2019-04-18T17:25:52.849Z,107744.00
2019-04-18T17:27:24.605Z,108160.00
2019-04-18T17:28:57.098Z,106656.00
2019-04-18T17:30:28.234Z,109760.00
2019-04-18T17:32:00.059Z,100768.00
2019-04-18T17:33:31.884Z,101824.00
2019-04-18T17:35:18.822Z,100832.00
2019-04-18T17:36:45.045Z,100544.00
2019-04-18T17:38:32.657Z,106016.00
2019-04-18T17:39:57.129Z,105952.00
2019-04-18T17:41:16.957Z,101088.00
2019-04-18T17:42:42.992Z,104032.00
2019-04-18T17:44:15.643Z,105248.00
2019-04-18T17:45:46.482Z,100960.00
2019-04-18T17:47:18.983Z,102976.00
2019-04-18T17:48:50.542Z,103680.00
2019-04-18T17:50:22.091Z,109696.00
2019-04-18T17:52:00.460Z,108960.00
2019-04-18T17:53:39.130Z,106592.00
2019-04-18T17:55:12.070Z,101600.00
2019-04-18T17:56:34.874Z,102784.00
2019-04-18T17:58:01.320Z,102400.00
2019-04-18T17:59:33.330Z,98176.00
2019-04-18T18:01:05.167Z,101824.00
2019-04-18T18:02:37.005Z,100768.00
2019-04-18T18:04:26.099Z,97888.00
2019-04-18T18:05:48.946Z,94720.00
2019-04-18T18:07:14.926Z,101152.00
2019-04-18T18:08:49.875Z,93472.00
2019-04-18T18:10:19.193Z,87680.00
2019-04-18T18:11:53.534Z,88032.00
2019-04-18T18:13:23.578Z,90176.00
2019-04-18T18:14:56.280Z,88256.00
2019-04-18T18:16:29.695Z,86624.00
2019-04-18T18:17:58.706Z,84160.00
2019-04-18T18:19:29.706Z,82144.00
2019-04-18T18:21:03.530Z,80704.00
2019-04-18T18:22:35.669Z,80192.00
2019-04-18T18:24:07.631Z,82112.00
2019-04-18T18:25:34.494Z,87840.00
2019-04-18T18:27:07.058Z,82144.00
2019-04-18T18:28:37.950Z,80416.00
2019-04-18T18:30:10.519Z,81440.00
2019-04-18T18:31:46.877Z,83008.00
2019-04-18T18:33:19.854Z,86208.00
2019-04-18T18:34:56.041Z,85408.00
2019-04-18T18:36:23.793Z,84224.00
2019-04-18T18:38:00.544Z,80800.00
2019-04-18T18:39:27.352Z,82016.00
2019-04-18T18:40:58.122Z,81792.00
2019-04-18T18:42:26.558Z,81760.00
2019-04-18T18:44:01.267Z,77024.00
2019-04-18T18:45:32.359Z,79552.00
2019-04-18T18:46:59.802Z,77536.00
2019-04-18T18:48:39.709Z,77216.00
2019-04-18T18:50:04.557Z,76736.00
2019-04-18T18:51:34.913Z,75168.00
2019-04-18T18:54:41.713Z,73760.00
2019-04-18T18:56:14.339Z,72288.00
2019-04-18T18:57:46.821Z,71136.00
2019-04-18T18:59:17.943Z,65888.00
2019-04-18T19:00:47.461Z,60896.00
2019-04-18T19:02:20.067Z,54752.00
2019-04-18T19:03:50.586Z,61408.00
2019-04-18T19:05:40.085Z,62688.00
2019-04-18T19:06:55.424Z,59296.00
2019-04-18T19:10:21.973Z,54880.00
2019-04-18T19:13:30.458Z,56128.00
2019-04-18T19:14:39.482Z,54528.00
2019-04-18T19:16:20.370Z,51680.00
2019-04-18T19:17:36.323Z,50304.00
2019-04-18T19:19:09.020Z,50400.00
2019-04-18T19:20:40.087Z,46720.00
2019-04-18T19:22:11.767Z,45216.00
2019-04-18T19:23:43.196Z,43552.00
2019-04-18T19:25:15.020Z,41568.00
2019-04-18T19:26:50.498Z,41920.00
2019-04-18T19:28:27.778Z,41952.00
2019-04-18T19:31:22.927Z,38976.00